Akutan, Alaska
Current Conditions -  °F | °C
As of 9:35 AM on Saturday 25 Oct 2014 (Local Time) from PAUT Reporting Station
Clear Clear  
Wind Chill:   Ceiling: Unl
Heat Index:   Visibility: 10mi
Dew Point:   Wind: 17mph
Humidity: 80%   Direction: 300°WNW
Pressure: 29.94"   Gusts: 22mph
Location:  54.14°N, 165.77°W
Report Text: PAUT 251735Z AUTO 30015G19KT 10SM CLR 05/02 A2994 RMK AO2 T00510019
Loading
Personal Weather Stations






























Interactive Weather Map
Tropical Storm Tracking
New forecast layout! Learn more

10-Day Weather Forecast

Advertisements
Track Severe Weather on mobile